Time;durP1;ratioP1;P1;durP2;ratioP2;P2;SDS_P1;SDS_P2;PMS_P1;PMS_P2;Temp;Humidity;BMP_temperature;BMP_pressure;BME280_temperature;BME280_humidity;BME280_pressure;Samples;Min_cycle;Max_cycle;Signal;HPM_P1;HPM_P2
2023/08/19 00:01:31;;;;;;;10.88;9.82;;;25.40;99.90;;;;;;5056490;28;20025;-81
2023/08/19 00:03:57;;;;;;;11.00;9.30;;;25.30;99.90;;;;;;5056150;28;20124;-81
2023/08/19 00:06:39;;;;;;;11.45;10.35;;;25.30;99.90;;;;;;5055077;28;20033;-81
2023/08/19 00:09:10;;;;;;;11.02;9.82;;;25.40;99.90;;;;;;5055962;28;20025;-81
2023/08/19 00:11:37;;;;;;;8.88;7.93;;;25.40;99.90;;;;;;5056261;28;20515;-81
2023/08/19 00:14:04;;;;;;;9.50;8.60;;;25.30;99.90;;;;;;5055368;28;20361;-81
2023/08/19 00:16:30;;;;;;;9.90;8.95;;;25.30;99.90;;;;;;5055844;28;20059;-82
2023/08/19 00:18:55;;;;;;;10.68;9.55;;;25.30;99.90;;;;;;5056277;28;20052;-81
2023/08/19 00:21:21;;;;;;;11.75;10.60;;;25.30;99.90;;;;;;5055475;28;20458;-81
2023/08/19 00:23:47;;;;;;;9.80;8.77;;;25.30;99.90;;;;;;5054376;28;20422;-82
2023/08/19 00:26:13;;;;;;;9.32;8.43;;;25.30;99.90;;;;;;5055925;28;20029;-81
2023/08/19 00:28:39;;;;;;;13.95;10.75;;;25.30;99.90;;;;;;5055290;28;20025;-81
2023/08/19 00:31:06;;;;;;;10.00;9.00;;;25.30;99.90;;;;;;5055591;28;20033;-82
2023/08/19 00:33:31;;;;;;;9.85;8.90;;;25.30;99.90;;;;;;5055105;28;20535;-81
2023/08/19 00:35:57;;;;;;;9.88;8.90;;;25.30;99.90;;;;;;5055405;28;20033;-81
2023/08/19 00:38:23;;;;;;;10.25;9.10;;;25.30;99.90;;;;;;5054692;28;20120;-81
2023/08/19 00:40:48;;;;;;;11.38;10.27;;;25.30;99.90;;;;;;5055443;28;20379;-81
2023/08/19 00:43:14;;;;;;;10.35;9.35;;;25.30;99.90;;;;;;5055326;28;20029;-81
2023/08/19 00:45:44;;;;;;;8.07;7.38;;;25.20;99.90;;;;;;5054158;28;20033;-81
2023/08/19 00:48:14;;;;;;;10.52;9.52;;;25.20;99.90;;;;;;5055584;28;20029;-81
2023/08/19 00:50:40;;;;;;;10.60;9.60;;;25.20;99.90;;;;;;5055444;28;20098;-81
2023/08/19 00:53:07;;;;;;;11.00;10.00;;;25.20;99.90;;;;;;5053580;28;20481;-82
2023/08/19 00:55:34;;;;;;;10.00;9.02;;;25.20;99.90;;;;;;5054741;28;20033;-81
2023/08/19 00:58:03;;;;;;;11.15;10.15;;;25.20;99.90;;;;;;5054547;28;20029;-81
2023/08/19 01:00:32;;;;;;;11.05;9.95;;;25.20;99.90;;;;;;5055162;28;20037;-81
2023/08/19 01:02:59;;;;;;;11.52;10.32;;;25.10;99.90;;;;;;5054913;28;20032;-81
2023/08/19 01:05:36;;;;;;;11.65;10.50;;;25.10;99.90;;;;;;5054707;28;20044;-81
2023/08/19 01:08:03;;;;;;;12.02;10.90;;;25.10;99.90;;;;;;5054938;28;20025;-82
2023/08/19 01:11:31;;;;;;;13.13;11.77;;;25.10;99.90;;;;;;5054801;28;20029;-81
2023/08/19 01:14:21;;;;;;;8.55;7.75;;;25.10;99.90;;;;;;5031732;28;20477;-81
2023/08/19 01:16:52;;;;;;;11.60;10.35;;;25.10;99.90;;;;;;5054339;28;20029;-82
2023/08/19 01:19:29;;;;;;;7.47;6.78;;;25.10;99.90;;;;;;5053719;28;20021;-81
2023/08/19 01:22:02;;;;;;;9.05;8.20;;;25.10;99.90;;;;;;5055166;28;20131;-82
2023/08/19 01:24:37;;;;;;;12.40;8.27;;;25.10;99.90;;;;;;5054541;28;20086;-81
2023/08/19 01:27:04;;;;;;;12.95;9.70;;;25.10;99.90;;;;;;5054833;28;20029;-81
2023/08/19 01:29:30;;;;;;;10.10;9.10;;;25.10;99.90;;;;;;5054295;28;20373;-82
2023/08/19 01:31:56;;;;;;;8.50;7.63;;;25.10;99.90;;;;;;5054679;28;20029;-82
2023/08/19 01:34:24;;;;;;;11.70;10.60;;;25.10;99.90;;;;;;5053964;28;20438;-81
2023/08/19 01:36:57;;;;;;;12.02;9.35;;;25.10;99.90;;;;;;5037624;28;20033;-81
2023/08/19 01:39:24;;;;;;;7.63;6.93;;;25.10;99.90;;;;;;5055114;28;20362;-81
2023/08/19 01:41:50;;;;;;;10.32;9.38;;;25.10;99.90;;;;;;5052642;28;20033;-82
2023/08/19 01:44:16;;;;;;;16.17;14.57;;;25.10;99.90;;;;;;5054476;28;20043;-82
2023/08/19 01:46:42;;;;;;;16.23;14.40;;;25.10;99.90;;;;;;5052843;28;20079;-81
2023/08/19 01:49:07;;;;;;;10.07;8.90;;;25.00;99.90;;;;;;5052970;28;20025;-82
2023/08/19 01:51:33;;;;;;;13.65;12.32;;;25.00;99.90;;;;;;5054026;28;20025;-82
2023/08/19 01:53:59;;;;;;;11.35;9.75;;;25.00;99.90;;;;;;5054607;28;20033;-82
2023/08/19 01:56:25;;;;;;;13.13;10.68;;;25.00;99.90;;;;;;5053114;28;20358;-81
2023/08/19 01:58:51;;;;;;;12.27;10.88;;;25.00;99.90;;;;;;5053953;28;20410;-81
2023/08/19 02:01:16;;;;;;;15.48;13.98;;;25.00;99.90;;;;;;5053274;28;20454;-82
2023/08/19 02:03:42;;;;;;;13.77;12.15;;;25.00;99.90;;;;;;5053838;28;20454;-81
2023/08/19 02:06:08;;;;;;;14.60;12.93;;;25.00;99.90;;;;;;5053837;28;20162;-82
2023/08/19 02:08:34;;;;;;;13.23;11.98;;;24.90;99.90;;;;;;5052632;28;20029;-80
2023/08/19 02:10:59;;;;;;;12.90;11.65;;;25.00;99.90;;;;;;5053396;28;20036;-81
2023/08/19 02:13:25;;;;;;;15.68;14.20;;;25.00;99.90;;;;;;5053922;28;20036;-80
2023/08/19 02:15:50;;;;;;;13.05;11.45;;;25.00;99.90;;;;;;5053643;28;20489;-81
2023/08/19 02:18:18;;;;;;;14.05;12.65;;;24.90;99.90;;;;;;5053664;28;20028;-81
2023/08/19 02:20:47;;;;;;;13.57;12.27;;;24.90;99.90;;;;;;5053652;28;20028;-80
2023/08/19 02:23:13;;;;;;;12.00;10.20;;;24.90;99.90;;;;;;5052361;28;20037;-81
2023/08/19 02:25:38;;;;;;;9.38;8.07;;;25.00;99.90;;;;;;5052510;28;20033;-80
2023/08/19 02:28:04;;;;;;;9.23;8.30;;;24.90;99.90;;;;;;5053901;28;20080;-79
2023/08/19 02:30:31;;;;;;;13.55;11.80;;;24.90;99.90;;;;;;5052266;28;20083;-80
2023/08/19 02:33:03;;;;;;;14.32;12.88;;;24.90;99.90;;;;;;5053842;28;20055;-80
2023/08/19 02:35:28;;;;;;;13.80;12.40;;;25.00;99.90;;;;;;5053828;28;20041;-81
2023/08/19 02:37:54;;;;;;;13.15;11.95;;;24.90;99.90;;;;;;5053532;28;20108;-81
2023/08/19 02:40:20;;;;;;;10.50;9.40;;;24.90;99.90;;;;;;5053672;28;20033;-82
2023/08/19 02:42:45;;;;;;;9.90;8.95;;;24.90;99.90;;;;;;5055745;28;20033;-81
2023/08/19 02:45:11;;;;;;;12.35;11.00;;;24.90;99.90;;;;;;5056075;28;20048;-82
2023/08/19 02:47:37;;;;;;;9.95;8.68;;;24.90;99.90;;;;;;5057765;28;20100;-82
2023/08/19 02:50:02;;;;;;;9.45;8.55;;;24.90;99.90;;;;;;5056168;28;20124;-82
2023/08/19 02:52:28;;;;;;;10.80;9.77;;;24.90;99.90;;;;;;5057377;28;20037;-82
2023/08/19 02:54:54;;;;;;;12.30;11.00;;;24.90;99.90;;;;;;5056959;28;20033;-82
2023/08/19 02:57:19;;;;;;;15.43;12.05;;;24.90;99.90;;;;;;5057044;28;20040;-81
2023/08/19 02:59:45;;;;;;;12.10;10.82;;;24.90;99.90;;;;;;5057096;28;20553;-82
2023/08/19 03:02:10;;;;;;;15.48;12.55;;;24.90;99.90;;;;;;5057566;28;20025;-82
2023/08/19 03:04:37;;;;;;;10.60;9.38;;;24.90;99.90;;;;;;5055781;28;20037;-81
2023/08/19 03:07:03;;;;;;;11.70;10.50;;;24.90;99.90;;;;;;5055944;28;20043;-82
2023/08/19 03:09:28;;;;;;;11.88;10.68;;;24.90;99.90;;;;;;5057423;28;20121;-81
2023/08/19 03:11:54;;;;;;;12.63;10.90;;;24.80;99.90;;;;;;5039723;28;20037;-82
2023/08/19 03:14:19;;;;;;;16.65;13.57;;;24.80;99.90;;;;;;5057328;28;20036;-81
2023/08/19 03:16:45;;;;;;;13.32;11.63;;;24.80;99.90;;;;;;5057262;28;20025;-82
2023/08/19 03:19:11;;;;;;;12.35;10.65;;;24.80;99.90;;;;;;5056086;28;20033;-82
2023/08/19 03:21:36;;;;;;;14.52;10.30;;;24.80;99.90;;;;;;5056005;28;20040;-82
2023/08/19 03:24:02;;;;;;;13.75;12.18;;;24.80;99.90;;;;;;5056779;28;20163;-82
2023/08/19 03:26:28;;;;;;;11.15;9.80;;;24.70;99.90;;;;;;5056796;28;20029;-82
2023/08/19 03:28:54;;;;;;;12.73;10.77;;;24.70;99.90;;;;;;5056794;28;20446;-81
2023/08/19 03:31:19;;;;;;;13.93;12.35;;;24.70;99.90;;;;;;5056997;28;20373;-82
2023/08/19 03:33:45;;;;;;;12.85;10.82;;;24.70;99.90;;;;;;5056682;28;20033;-82
2023/08/19 03:36:11;;;;;;;15.63;11.75;;;24.80;99.90;;;;;;5056802;28;20062;-81
2023/08/19 03:38:36;;;;;;;14.00;11.82;;;24.80;99.90;;;;;;5056625;28;20029;-81
2023/08/19 03:41:02;;;;;;;12.48;11.13;;;24.70;99.90;;;;;;5056559;28;20455;-82
2023/08/19 03:43:28;;;;;;;11.57;10.25;;;24.80;99.90;;;;;;5056411;28;20029;-81
2023/08/19 03:45:54;;;;;;;12.32;9.98;;;24.70;99.90;;;;;;5056243;28;20029;-82
2023/08/19 03:48:19;;;;;;;12.02;10.85;;;24.70;99.90;;;;;;5056437;28;20022;-81
2023/08/19 03:50:45;;;;;;;9.23;8.27;;;24.70;99.90;;;;;;5056613;28;20049;-82
2023/08/19 03:53:11;;;;;;;12.93;11.38;;;24.70;99.90;;;;;;5056127;28;20108;-81
2023/08/19 03:55:36;;;;;;;11.23;10.13;;;24.70;99.90;;;;;;5056217;28;20049;-81
2023/08/19 03:58:02;;;;;;;14.23;11.60;;;24.70;99.90;;;;;;5055511;28;20035;-81
2023/08/19 04:00:28;;;;;;;12.43;11.18;;;24.70;99.90;;;;;;5053984;28;20076;-82
2023/08/19 04:02:53;;;;;;;14.95;10.75;;;24.70;99.90;;;;;;5054124;28;20359;-81
2023/08/19 04:05:19;;;;;;;13.73;11.15;;;24.80;99.90;;;;;;5036993;28;20033;-81
2023/08/19 04:07:45;;;;;;;11.25;10.05;;;24.80;99.90;;;;;;5055190;28;20087;-82
2023/08/19 04:10:10;;;;;;;12.75;11.40;;;24.70;99.90;;;;;;5054876;28;20025;-81
2023/08/19 04:12:36;;;;;;;11.98;10.13;;;24.70;99.90;;;;;;5055359;28;20064;-82
2023/08/19 04:15:02;;;;;;;13.07;10.93;;;24.70;99.90;;;;;;5054801;28;20033;-81
2023/08/19 04:17:28;;;;;;;11.88;9.10;;;24.60;99.90;;;;;;5055331;28;20093;-82
2023/08/19 04:19:54;;;;;;;9.30;8.23;;;24.60;99.90;;;;;;5054983;28;20032;-81
2023/08/19 04:22:19;;;;;;;12.07;9.95;;;24.70;99.90;;;;;;5054981;28;20369;-82
2023/08/19 04:24:52;;;;;;;8.40;7.07;;;24.70;99.90;;;;;;5054555;28;20491;-82
2023/08/19 04:27:19;;;;;;;13.13;10.88;;;24.70;99.90;;;;;;5054638;28;20033;-81
2023/08/19 04:29:44;;;;;;;11.35;9.73;;;24.70;99.90;;;;;;5054885;28;20029;-82
2023/08/19 04:32:10;;;;;;;11.90;9.05;;;24.70;99.90;;;;;;5054558;28;20025;-82
2023/08/19 04:34:36;;;;;;;9.15;8.15;;;24.70;99.90;;;;;;5054407;28;20116;-82
2023/08/19 04:37:02;;;;;;;8.60;7.57;;;24.70;99.90;;;;;;5054491;28;20098;-82
2023/08/19 04:39:28;;;;;;;10.85;9.73;;;24.70;99.90;;;;;;5053407;28;20354;-81
2023/08/19 04:41:54;;;;;;;12.60;10.55;;;24.70;99.90;;;;;;5054100;28;20036;-81
2023/08/19 04:44:20;;;;;;;9.82;8.85;;;24.70;99.90;;;;;;5054290;28;20048;-82
2023/08/19 04:46:46;;;;;;;9.95;8.80;;;24.70;99.90;;;;;;5054872;28;20033;-82
2023/08/19 04:49:11;;;;;;;7.53;6.82;;;24.60;99.90;;;;;;5054022;28;20029;-81
2023/08/19 04:51:37;;;;;;;10.77;7.85;;;24.70;99.90;;;;;;5054178;28;20025;-82
2023/08/19 04:54:04;;;;;;;12.68;9.20;;;24.60;99.90;;;;;;5054224;28;20082;-82
2023/08/19 04:56:30;;;;;;;11.10;9.05;;;24.70;99.90;;;;;;5054895;28;20033;-82
2023/08/19 04:59:00;;;;;;;7.57;6.88;;;24.70;99.90;;;;;;5053632;28;20441;-82
2023/08/19 05:01:36;;;;;;;8.85;7.35;;;24.70;99.90;;;;;;5111529;27;20385;-82
2023/08/19 05:04:02;;;;;;;12.73;8.52;;;24.70;99.90;;;;;;5110584;28;20036;-82
2023/08/19 05:06:27;;;;;;;8.02;6.75;;;24.70;99.90;;;;;;5109872;28;20031;-82
2023/08/19 05:08:53;;;;;;;13.50;9.10;;;24.80;99.90;;;;;;5110387;28;20526;-82
2023/08/19 05:11:19;;;;;;;8.70;7.43;;;24.70;99.90;;;;;;5111430;28;20122;-82
2023/08/19 05:13:44;;;;;;;9.75;6.93;;;24.60;99.90;;;;;;5111503;28;20372;-82
2023/08/19 05:16:10;;;;;;;7.15;6.15;;;24.60;99.90;;;;;;5111134;28;20443;-82
2023/08/19 05:18:36;;;;;;;10.38;8.57;;;24.60;99.90;;;;;;5110058;28;20034;-82
2023/08/19 05:21:02;;;;;;;10.52;8.30;;;24.60;99.90;;;;;;5111306;28;20035;-82
2023/08/19 05:23:28;;;;;;;12.65;8.15;;;24.60;99.90;;;;;;5110278;28;20425;-82
2023/08/19 05:25:53;;;;;;;9.68;6.70;;;24.60;99.90;;;;;;5109825;28;20024;-82
2023/08/19 05:28:19;;;;;;;10.80;6.47;;;24.60;99.90;;;;;;5110878;28;20063;-82
2023/08/19 05:30:45;;;;;;;6.13;5.38;;;24.60;99.90;;;;;;5109978;28;20137;-82
2023/08/19 05:33:10;;;;;;;8.27;5.35;;;24.70;99.90;;;;;;5109622;28;20153;-82
2023/08/19 05:35:36;;;;;;;9.40;5.95;;;24.80;99.90;;;;;;5109446;28;20105;-82
2023/08/19 05:38:01;;;;;;;8.77;6.22;;;24.80;99.90;;;;;;5111310;28;20475;-82
2023/08/19 05:40:27;;;;;;;10.05;6.95;;;24.80;99.90;;;;;;5111467;28;20173;-82
2023/08/19 05:42:53;;;;;;;9.40;6.97;;;24.80;99.90;;;;;;5110823;28;20472;-81
2023/08/19 05:45:18;;;;;;;14.25;8.10;;;24.80;99.90;;;;;;5110669;28;20031;-82
2023/08/19 05:47:44;;;;;;;6.18;5.13;;;24.70;99.90;;;;;;5109740;28;20036;-82
2023/08/19 05:50:10;;;;;;;10.07;6.40;;;24.70;99.90;;;;;;5110709;28;20032;-82
2023/08/19 05:52:35;;;;;;;9.40;6.40;;;24.80;99.90;;;;;;5092342;28;20023;-82
2023/08/19 05:55:01;;;;;;;10.32;6.00;;;24.80;99.90;;;;;;5110879;28;20035;-82
2023/08/19 05:57:27;;;;;;;10.00;6.38;;;24.80;99.90;;;;;;5109067;28;20028;-82
2023/08/19 05:59:52;;;;;;;12.00;7.45;;;24.80;99.90;;;;;;5110271;28;20105;-82
2023/08/19 06:02:18;;;;;;;7.75;6.60;;;24.80;99.90;;;;;;5110427;28;20212;-82
2023/08/19 06:04:43;;;;;;;8.80;6.30;;;24.80;99.90;;;;;;5109271;28;20032;-83
2023/08/19 06:07:09;;;;;;;10.52;6.63;;;24.90;99.90;;;;;;5110265;28;20426;-83
2023/08/19 06:09:35;;;;;;;8.70;5.75;;;24.90;99.90;;;;;;5110353;28;20473;-82
2023/08/19 06:12:02;;;;;;;6.57;5.18;;;24.90;99.80;;;;;;5102070;28;20081;-82
2023/08/19 06:14:27;;;;;;;7.22;5.50;;;24.90;99.70;;;;;;5096612;28;20036;-82
2023/08/19 06:16:53;;;;;;;8.88;6.18;;;24.90;99.70;;;;;;5095276;28;20115;-82
2023/08/19 06:19:19;;;;;;;8.55;5.20;;;24.90;99.80;;;;;;5096441;28;20113;-81
2023/08/19 06:21:44;;;;;;;11.32;6.35;;;24.90;99.80;;;;;;5096261;28;20070;-81
2023/08/19 06:24:10;;;;;;;8.57;5.57;;;25.00;99.80;;;;;;5096450;28;20472;-81
2023/08/19 06:26:36;;;;;;;8.38;6.07;;;25.00;99.80;;;;;;5078181;28;20042;-81
2023/08/19 06:29:02;;;;;;;10.68;5.70;;;25.00;99.80;;;;;;5096242;28;20020;-81
2023/08/19 06:31:28;;;;;;;8.13;5.70;;;25.00;99.70;;;;;;5095934;28;20486;-81
2023/08/19 06:33:54;;;;;;;9.32;5.85;;;25.00;99.80;;;;;;5094472;28;20523;-82
2023/08/19 06:36:25;;;;;;;9.15;5.65;;;24.90;99.90;;;;;;5094312;28;20099;-80
2023/08/19 06:39:06;;;;;;;10.10;6.00;;;24.90;99.90;;;;;;5096030;28;20034;-81
2023/08/19 06:41:35;;;;;;;8.35;5.70;;;24.80;99.90;;;;;;5096042;28;20119;-84
2023/08/19 06:44:03;;;;;;;12.05;5.88;;;24.90;99.90;;;;;;5095814;28;20353;-82
2023/08/19 06:46:29;;;;;;;10.88;5.68;;;24.80;99.80;;;;;;5095709;28;20032;-81
2023/08/19 06:48:56;;;;;;;7.80;4.95;;;24.90;99.70;;;;;;5095720;28;20488;-81
2023/08/19 06:51:22;;;;;;;7.68;5.93;;;24.90;99.70;;;;;;5095721;28;20032;-81
2023/08/19 06:53:48;;;;;;;7.30;4.85;;;25.00;99.80;;;;;;5095531;28;20431;-81
2023/08/19 06:56:33;;;;;;;9.02;5.30;;;25.00;99.70;;;;;;5095832;28;20032;-81
2023/08/19 06:59:11;;;;;;;8.10;5.45;;;25.00;99.60;;;;;;5094253;28;20028;-80
2023/08/19 07:01:38;;;;;;;4.90;4.38;;;25.00;99.60;;;;;;5095705;28;20048;-81
2023/08/19 07:04:05;;;;;;;7.85;5.07;;;25.00;99.50;;;;;;5094226;28;20070;-81
2023/08/19 07:06:32;;;;;;;6.78;4.15;;;25.00;99.40;;;;;;5093803;28;20040;-81
2023/08/19 07:09:00;;;;;;;10.77;5.75;;;25.10;99.50;;;;;;5095751;28;20043;-82
2023/08/19 07:11:27;;;;;;;6.68;5.13;;;25.10;99.60;;;;;;5095014;28;20032;-81
2023/08/19 07:13:52;;;;;;;7.60;4.82;;;25.00;99.70;;;;;;5095319;28;20055;-81
2023/08/19 07:16:22;;;;;;;6.95;4.95;;;25.10;99.80;;;;;;5093855;28;20051;-81
2023/08/19 07:18:52;;;;;;;7.75;4.80;;;25.10;99.80;;;;;;5095444;28;20107;-79
2023/08/19 07:21:20;;;;;;;7.65;4.13;;;25.10;99.70;;;;;;5095239;28;20542;-81
2023/08/19 07:23:47;;;;;;;8.05;4.35;;;25.20;99.70;;;;;;5094112;28;20400;-81
2023/08/19 07:26:14;;;;;;;7.57;4.30;;;25.30;99.70;;;;;;5095011;28;20064;-81
2023/08/19 07:28:40;;;;;;;8.05;4.47;;;25.30;99.80;;;;;;5094867;28;20039;-81
2023/08/19 07:31:06;;;;;;;6.57;3.95;;;25.30;99.70;;;;;;5093606;28;20127;-81
2023/08/19 07:33:32;;;;;;;7.43;4.75;;;25.30;99.70;;;;;;5094447;28;20031;-81
2023/08/19 07:35:58;;;;;;;9.45;4.65;;;25.30;99.70;;;;;;5094092;28;20032;-81
2023/08/19 07:38:24;;;;;;;6.45;3.92;;;25.30;99.70;;;;;;5093246;28;20433;-81
2023/08/19 07:40:50;;;;;;;6.22;3.65;;;25.40;99.60;;;;;;5093244;28;20073;-81
2023/08/19 07:43:15;;;;;;;7.03;4.47;;;25.40;99.60;;;;;;5094619;28;20119;-81
2023/08/19 07:45:41;;;;;;;5.22;4.18;;;25.40;99.50;;;;;;5094657;28;20105;-81
2023/08/19 07:48:06;;;;;;;4.93;4.43;;;25.50;99.50;;;;;;5076586;28;20102;-82
2023/08/19 07:50:32;;;;;;;6.88;4.40;;;25.50;99.40;;;;;;5094259;28;20119;-81
2023/08/19 07:52:58;;;;;;;10.35;4.30;;;25.50;99.40;;;;;;5094402;28;20407;-81
2023/08/19 07:55:24;;;;;;;8.13;5.00;;;25.50;99.40;;;;;;5093217;28;20035;-81
2023/08/19 07:57:49;;;;;;;8.80;5.07;;;25.70;99.70;;;;;;5094409;28;20525;-81
2023/08/19 08:00:15;;;;;;;9.20;5.00;;;25.80;99.30;;;;;;5093814;28;20442;-82
2023/08/19 08:02:41;;;;;;;9.80;5.18;;;25.90;99.40;;;;;;5094362;28;20039;-82
2023/08/19 08:05:07;;;;;;;7.65;4.57;;;26.10;99.20;;;;;;5093952;28;20032;-81
2023/08/19 08:07:32;;;;;;;6.60;3.90;;;26.20;98.90;;;;;;5093800;28;20036;-81
2023/08/19 08:09:58;;;;;;;9.85;5.00;;;26.30;98.70;;;;;;5092877;28;20082;-81
2023/08/19 08:12:24;;;;;;;9.05;4.30;;;26.30;98.80;;;;;;5092510;28;20024;-81
2023/08/19 08:14:49;;;;;;;6.47;4.35;;;26.40;98.90;;;;;;5094090;28;20032;-81
2023/08/19 08:17:15;;;;;;;10.35;4.57;;;26.40;98.90;;;;;;5093853;28;20020;-81
2023/08/19 08:19:41;;;;;;;6.70;3.58;;;26.40;98.80;;;;;;5094214;28;20098;-81
2023/08/19 08:22:07;;;;;;;7.00;4.35;;;26.40;99.20;;;;;;5092978;28;20062;-81
2023/08/19 08:24:33;;;;;;;8.27;3.88;;;26.40;99.60;;;;;;5093959;28;20038;-83
2023/08/19 08:26:59;;;;;;;5.10;4.00;;;26.60;99.30;;;;;;5094072;28;20442;-81
2023/08/19 08:29:24;;;;;;;7.53;4.10;;;26.60;99.10;;;;;;5092676;28;20028;-81
2023/08/19 08:31:50;;;;;;;7.28;4.05;;;26.70;99.00;;;;;;5094329;28;20043;-81
2023/08/19 08:34:16;;;;;;;6.95;4.32;;;26.70;99.10;;;;;;5093703;28;20028;-81
2023/08/19 08:36:42;;;;;;;7.63;3.97;;;26.70;99.40;;;;;;5093403;28;20035;-81
2023/08/19 08:39:07;;;;;;;7.07;3.97;;;26.70;99.40;;;;;;5093570;28;20032;-81
2023/08/19 08:41:39;;;;;;;7.70;3.60;;;26.60;99.50;;;;;;5093557;28;20358;-81
2023/08/19 08:44:08;;;;;;;4.72;3.58;;;26.70;99.50;;;;;;5076052;28;20036;-82
2023/08/19 08:46:34;;;;;;;5.90;3.97;;;26.70;99.30;;;;;;5093576;28;20028;-81
2023/08/19 08:49:01;;;;;;;5.20;4.03;;;26.60;99.30;;;;;;5092352;28;20376;-81
2023/08/19 08:51:27;;;;;;;6.65;4.00;;;26.70;99.40;;;;;;5076260;28;20059;-82
2023/08/19 08:53:56;;;;;;;5.93;4.78;;;26.70;99.40;;;;;;5093527;28;20082;-81
2023/08/19 08:56:23;;;;;;;7.20;4.03;;;26.70;99.70;;;;;;5093428;28;20441;-81
2023/08/19 08:58:49;;;;;;;10.18;5.10;;;26.70;99.70;;;;;;5093334;28;20500;-81
2023/08/19 09:01:17;;;;;;;7.60;4.57;;;26.80;99.80;;;;;;5093825;28;20130;-81
2023/08/19 09:03:46;;;;;;;4.97;4.15;;;26.80;99.90;;;;;;5092585;28;20036;-82
2023/08/19 09:06:18;;;;;;;5.90;4.38;;;26.70;99.80;;;;;;5091932;28;20039;-82
2023/08/19 09:08:49;;;;;;;7.70;5.68;;;26.70;99.70;;;;;;5093709;28;20024;-82
2023/08/19 09:11:25;;;;;;;7.00;5.55;;;26.70;99.50;;;;;;5092331;28;20028;-82
2023/08/19 09:14:17;;;;;;;6.72;5.50;;;26.60;99.30;;;;;;5093529;28;20107;-81
2023/08/19 09:16:43;;;;;;;8.27;5.32;;;26.60;99.20;;;;;;5093314;28;20028;-82
2023/08/19 09:19:08;;;;;;;11.43;6.00;;;26.60;99.30;;;;;;5093534;28;20115;-81
2023/08/19 09:21:34;;;;;;;9.23;5.47;;;26.60;99.30;;;;;;5093057;28;20036;-81
2023/08/19 09:24:00;;;;;;;11.23;5.97;;;26.60;99.40;;;;;;5093587;28;20047;-81
2023/08/19 09:26:26;;;;;;;6.75;5.68;;;26.60;99.60;;;;;;5092089;28;20038;-81
2023/08/19 09:28:58;;;;;;;9.05;6.25;;;26.60;99.70;;;;;;5093098;28;20020;-80
2023/08/19 09:31:24;;;;;;;8.70;6.10;;;26.60;99.80;;;;;;5093087;28;20055;-81
2023/08/19 09:33:52;;;;;;;7.85;6.30;;;26.50;99.80;;;;;;5093004;28;20090;-81
2023/08/19 09:36:24;;;;;;;10.38;6.65;;;26.50;99.90;;;;;;5092689;28;20028;-81
2023/08/19 09:38:53;;;;;;;;;;;26.50;99.90;;;;;;5093653;28;20047;-80
2023/08/19 09:41:19;;;;;;;7.93;6.10;;;26.50;99.90;;;;;;5093016;28;19912;-80
2023/08/19 09:43:48;;;;;;;9.38;6.35;;;26.40;99.90;;;;;;5092947;28;20032;-81
2023/08/19 09:46:15;;;;;;;9.48;6.70;;;26.40;99.90;;;;;;5091719;28;20496;-79
2023/08/19 09:48:40;;;;;;;8.05;6.40;;;26.40;99.90;;;;;;5096700;28;20039;-80
2023/08/19 09:51:08;;;;;;;10.77;6.53;;;26.40;99.90;;;;;;5096757;28;20032;-80
2023/08/19 09:53:36;;;;;;;8.15;6.47;;;26.40;99.90;;;;;;5096837;28;20094;-81
2023/08/19 09:56:02;;;;;;;11.20;6.65;;;26.40;99.90;;;;;;5096636;28;20068;-81
2023/08/19 09:58:28;;;;;;;8.32;6.38;;;26.40;99.90;;;;;;5095282;28;20047;-81
2023/08/19 10:00:53;;;;;;;10.95;6.50;;;26.40;99.90;;;;;;5096332;28;20055;-80
2023/08/19 10:03:19;;;;;;;8.82;6.75;;;26.50;99.90;;;;;;5096652;28;20130;-81
2023/08/19 10:05:54;;;;;;;9.10;7.05;;;26.60;99.90;;;;;;5096164;28;20028;-81
2023/08/19 10:08:25;;;;;;;12.38;7.80;;;26.60;99.90;;;;;;5096821;28;20104;-83
2023/08/19 10:10:51;;;;;;;10.03;7.50;;;26.80;99.90;;;;;;5096711;28;20028;-83
2023/08/19 10:13:18;;;;;;;9.00;7.68;;;26.90;99.90;;;;;;5096183;28;20027;-82
2023/08/19 10:15:44;;;;;;;10.55;7.30;;;27.10;99.90;;;;;;5096350;28;20024;-82
2023/08/19 10:18:22;;;;;;;8.82;6.88;;;27.20;99.90;;;;;;5096425;28;20032;-82
2023/08/19 10:20:52;;;;;;;13.80;8.80;;;27.20;99.90;;;;;;5096752;28;20089;-83
2023/08/19 10:23:19;;;;;;;12.73;9.07;;;27.30;99.90;;;;;;5095996;28;20058;-82
2023/08/19 10:25:45;;;;;;;11.70;9.00;;;27.40;99.90;;;;;;5096248;28;20528;-82
2023/08/19 10:28:13;;;;;;;11.77;9.25;;;27.40;99.90;;;;;;5096159;28;20034;-82
2023/08/19 10:30:38;;;;;;;20.58;10.38;;;27.60;99.90;;;;;;5096263;28;20039;-83
2023/08/19 10:33:25;;;;;;;13.27;9.85;;;27.60;99.80;;;;;;5096116;28;20024;-81
2023/08/19 10:36:04;;;;;;;11.52;9.35;;;27.70;99.90;;;;;;5095827;28;20035;-83
2023/08/19 10:38:53;;;;;;;11.65;8.40;;;27.90;99.90;;;;;;5096542;28;20062;-82
2023/08/19 10:41:30;;;;;;;15.38;10.80;;;28.10;99.70;;;;;;5095996;28;20094;-82
2023/08/19 10:43:59;;;;;;;12.52;9.57;;;28.10;99.30;;;;;;5096805;28;20063;-82
2023/08/19 10:46:30;;;;;;;12.73;8.98;;;28.10;99.40;;;;;;5094583;28;20059;-81
2023/08/19 10:48:56;;;;;;;13.20;9.93;;;28.30;99.50;;;;;;5095707;28;20028;-83
2023/08/19 10:52:03;;;;;;;13.35;9.93;;;28.40;99.10;;;;;;5094434;28;20040;-81
2023/08/19 10:54:40;;;;;;;13.30;9.23;;;28.50;99.00;;;;;;5095803;28;20028;-82
2023/08/19 10:57:18;;;;;;;12.52;10.15;;;28.60;98.90;;;;;;5095473;28;20031;-82
2023/08/19 10:59:49;;;;;;;15.55;10.48;;;28.60;98.60;;;;;;5095376;28;20039;-80
2023/08/19 11:02:15;;;;;;;14.32;10.75;;;28.60;98.50;;;;;;5095175;28;20087;-82
2023/08/19 11:04:43;;;;;;;14.27;10.57;;;28.60;98.60;;;;;;5095106;28;20056;-82
2023/08/19 11:07:09;;;;;;;15.55;11.88;;;28.50;98.60;;;;;;5095290;28;20032;-81
2023/08/19 11:09:35;;;;;;;18.33;12.07;;;28.50;98.70;;;;;;5095410;28;20028;-82
2023/08/19 11:12:01;;;;;;;16.50;11.00;;;28.40;98.80;;;;;;5095043;28;20031;-81
2023/08/19 11:14:27;;;;;;;14.32;12.23;;;28.40;98.90;;;;;;5094905;28;20028;-81
2023/08/19 11:16:54;;;;;;;14.25;12.85;;;28.30;98.80;;;;;;5094787;28;20035;-81
2023/08/19 11:19:21;;;;;;;16.67;14.18;;;28.30;98.80;;;;;;5095184;28;20040;-81
2023/08/19 11:21:47;;;;;;;18.38;14.27;;;28.20;98.90;;;;;;5094766;28;20067;-82
2023/08/19 11:24:13;;;;;;;18.13;16.20;;;28.10;99.00;;;;;;5093680;28;20036;-81
2023/08/19 11:26:40;;;;;;;19.98;16.05;;;28.00;99.20;;;;;;5093988;28;20032;-82
2023/08/19 11:29:09;;;;;;;20.92;14.88;;;27.90;99.50;;;;;;5093701;28;20024;-81
2023/08/19 11:31:36;;;;;;;15.90;14.38;;;27.80;99.50;;;;;;5094937;28;20032;-82
2023/08/19 11:34:09;;;;;;;17.67;15.82;;;27.80;99.70;;;;;;5094624;28;20098;-82
2023/08/19 11:36:36;;;;;;;18.17;15.45;;;27.70;99.70;;;;;;5094598;28;20035;-82
2023/08/19 11:39:04;;;;;;;18.65;16.60;;;27.70;99.70;;;;;;5093853;28;20115;-82
2023/08/19 11:41:30;;;;;;;17.77;14.75;;;27.60;99.50;;;;;;5094501;28;20123;-81
2023/08/19 11:43:57;;;;;;;16.95;14.50;;;27.60;99.60;;;;;;5094992;28;20036;-81
2023/08/19 11:46:29;;;;;;;16.52;14.70;;;27.50;99.90;;;;;;5094384;28;20059;-82
2023/08/19 11:48:57;;;;;;;15.68;13.98;;;27.50;99.90;;;;;;5094576;28;20468;-83
2023/08/19 11:51:22;;;;;;;14.02;11.52;;;27.40;99.90;;;;;;5094340;28;20036;-81
2023/08/19 11:53:51;;;;;;;15.25;13.65;;;27.40;99.90;;;;;;5094158;28;20077;-81
2023/08/19 11:56:16;;;;;;;14.75;13.02;;;27.40;99.90;;;;;;5094018;28;20056;-81
2023/08/19 11:58:50;;;;;;;16.70;12.75;;;27.30;99.80;;;;;;5092887;28;20055;-84
2023/08/19 12:01:20;;;;;;;13.77;12.20;;;27.20;99.70;;;;;;5092599;28;20493;-82
2023/08/19 12:03:49;;;;;;;12.82;10.70;;;27.20;99.70;;;;;;5094258;28;20067;-82
2023/08/19 12:06:16;;;;;;;9.77;8.82;;;27.20;99.90;;;;;;5093733;28;20039;-83
2023/08/19 12:08:44;;;;;;;11.25;9.27;;;27.20;99.90;;;;;;5094191;28;20024;-82
2023/08/19 12:11:11;;;;;;;9.70;8.13;;;27.10;99.90;;;;;;5093828;28;20085;-83
2023/08/19 12:13:37;;;;;;;8.65;7.63;;;27.10;99.70;;;;;;5093936;28;20021;-83
2023/08/19 12:16:06;;;;;;;11.32;7.40;;;27.00;99.70;;;;;;5093999;28;20027;-83
2023/08/19 12:18:34;;;;;;;8.98;6.30;;;27.00;99.90;;;;;;5094169;28;20020;-83
2023/08/19 12:21:03;;;;;;;8.98;6.85;;;26.90;99.80;;;;;;5093958;28;20089;-83
2023/08/19 12:23:30;;;;;;;11.15;7.93;;;26.90;99.90;;;;;;5093853;28;20109;-83
2023/08/19 12:25:59;;;;;;;11.70;8.63;;;26.90;99.60;;;;;;5093825;28;20077;-84
2023/08/19 12:28:28;;;;;;;10.20;8.32;;;26.80;99.50;;;;;;5093748;28;20042;-83
2023/08/19 12:30:54;;;;;;;10.55;8.63;;;26.70;99.40;;;;;;5093567;28;20063;-83
2023/08/19 12:33:21;;;;;;;13.73;8.82;;;26.60;99.40;;;;;;5093664;28;20032;-83
2023/08/19 12:35:49;;;;;;;8.90;8.00;;;26.50;99.60;;;;;;5093522;28;20024;-82
2023/08/19 12:38:16;;;;;;;11.43;8.18;;;26.50;99.90;;;;;;5093824;28;20028;-83
2023/08/19 12:40:46;;;;;;;10.57;7.50;;;26.50;99.90;;;;;;5092426;28;20066;-83